createdAt,value
2018-03-27T00:02:35.050Z,93921.31
2018-03-27T00:17:40.417Z,93922.03
2018-03-27T00:32:46.175Z,93924.03
2018-03-27T00:47:35.295Z,93925.30
2018-03-27T01:02:36.648Z,93928.14
2018-03-27T01:17:36.582Z,93926.53
2018-03-27T01:32:37.527Z,93925.95
2018-03-27T02:02:36.401Z,93910.06
2018-03-27T02:17:44.294Z,93911.48
2018-03-27T02:32:36.688Z,93919.42
2018-03-27T02:47:42.707Z,93922.73
2018-03-27T03:02:35.602Z,93926.20
2018-03-27T03:17:35.112Z,93932.31
2018-03-27T03:32:34.959Z,93943.53
2018-03-27T04:02:34.782Z,93949.78
2018-03-27T04:17:34.220Z,93966.33
2018-03-27T04:32:34.113Z,93983.78
2018-03-27T04:47:33.636Z,93999.53
2018-03-27T05:17:34.850Z,94023.69
2018-03-27T05:47:34.788Z,94036.40
2018-03-27T06:02:35.821Z,94048.63
2018-03-27T06:32:34.565Z,94064.66
2018-03-27T06:47:38.186Z,94075.56
2018-03-27T07:02:35.453Z,94080.34
2018-03-27T07:17:34.958Z,94093.33
2018-03-27T07:32:36.262Z,94116.73
2018-03-27T07:47:35.685Z,94124.97
2018-03-27T08:17:35.040Z,94156.20
2018-03-27T08:32:35.453Z,94157.67
2018-03-27T09:02:34.871Z,94161.63
2018-03-27T09:17:38.705Z,94147.52
2018-03-27T09:47:37.062Z,94138.46
2018-03-27T10:02:36.995Z,94131.55
2018-03-27T10:17:35.464Z,94119.18
2018-03-27T10:32:35.308Z,94126.80
2018-03-27T11:17:34.627Z,94138.25
2018-03-27T11:32:33.548Z,94137.00
2018-03-27T12:02:33.971Z,94128.84
2018-03-27T12:32:37.737Z,94137.09
2018-03-27T12:47:36.621Z,94130.34
2018-03-27T13:02:34.663Z,94129.23
2018-03-27T13:17:34.989Z,94143.72
2018-03-27T13:32:34.885Z,94140.19
2018-03-27T14:02:34.811Z,94138.77
2018-03-27T14:32:35.093Z,94140.19
2018-03-27T14:47:35.040Z,94143.69
2018-03-27T15:32:35.884Z,94163.89
2018-03-27T16:02:35.702Z,94194.78
2018-03-27T16:32:35.020Z,94203.51
2018-03-27T16:47:34.536Z,94209.24
2018-03-27T17:02:36.547Z,94221.75
2018-03-27T17:17:37.949Z,94239.00
2018-03-27T17:32:37.889Z,94236.46
2018-03-27T17:47:34.860Z,94253.19
2018-03-27T18:02:41.727Z,94266.39
2018-03-27T18:32:52.179Z,94298.75
2018-03-27T18:47:37.778Z,94306.92
2018-03-27T19:02:36.747Z,94310.15
2018-03-27T19:17:37.312Z,94337.31
2018-03-27T19:32:36.209Z,94347.55
2018-03-27T19:47:42.513Z,94363.84
2018-03-27T20:02:35.146Z,94364.35
2018-03-27T20:17:34.528Z,94352.58
2018-03-27T20:32:38.719Z,94348.02
2018-03-27T20:47:36.851Z,94330.41
2018-03-27T21:02:35.754Z,94325.61
2018-03-27T21:17:36.723Z,94315.21
2018-03-27T21:32:34.607Z,94307.14
2018-03-27T21:47:37.569Z,94314.20
2018-03-27T22:02:34.528Z,94301.28
2018-03-27T22:17:34.908Z,94276.77
2018-03-27T22:32:36.374Z,94268.94
2018-03-27T22:47:34.780Z,94278.63
2018-03-27T23:02:34.691Z,94272.01
2018-03-27T23:17:35.058Z,94266.34
2018-03-27T23:32:34.599Z,94263.23
2018-03-27T23:47:34.978Z,94253.23
